Thrift, Georgia
Current Conditions -  °F | °C
As of 12:35 AM on Sunday 21 Dec 2014 (Local Time) from KJYL Reporting Station
Light Rain Light Rain  
Wind Chill: 47°   Ceiling: 300
Heat Index: 49°   Visibility: 4mi
Dew Point: 49°   Wind: 6mph
Humidity: 100%   Direction: 60°ENE
Pressure: 30.2"   Gusts: NA
Location:  32.7727°N, 81.9794°W
Report Text: KJYL 210535Z AUTO 06005KT 4SM -RA OVC003 10/10 A3020 RMK AO2 T00950095
Loading
Personal Weather Stations






























Interactive Weather Map New forecast layout! Learn more

10-Day Weather Forecast

Advertisements
Track Severe Weather on mobile